sensor_id;sensor_type;location;lat;lon;timestamp;pressure;altitude;pressure_sealevel;temperature;humidity
72409;BME280;60402;48.082;11.628;2023-07-29T00:01:09;95101.69;;;16.46;100.00
72409;BME280;60402;48.082;11.628;2023-07-29T00:03:54;95109.97;;;16.44;100.00
72409;BME280;60402;48.082;11.628;2023-07-29T00:06:40;95093.66;;;16.44;100.00
72409;BME280;60402;48.082;11.628;2023-07-29T00:09:26;95102.13;;;16.39;100.00
72409;BME280;60402;48.082;11.628;2023-07-29T00:12:11;95092.19;;;16.34;100.00
72409;BME280;60402;48.082;11.628;2023-07-29T00:14:57;95096.41;;;16.39;100.00
72409;BME280;60402;48.082;11.628;2023-07-29T00:17:43;95087.06;;;16.38;100.00
72409;BME280;60402;48.082;11.628;2023-07-29T00:20:28;95094.53;;;16.35;100.00
72409;BME280;60402;48.082;11.628;2023-07-29T00:23:14;95096.41;;;16.39;100.00
72409;BME280;60402;48.082;11.628;2023-07-29T00:25:59;95085.88;;;16.30;100.00
72409;BME280;60402;48.082;11.628;2023-07-29T00:28:45;95083.22;;;16.26;100.00
72409;BME280;60402;48.082;11.628;2023-07-29T00:31:31;95073.81;;;16.20;100.00
72409;BME280;60402;48.082;11.628;2023-07-29T00:34:16;95090.81;;;16.29;100.00
72409;BME280;60402;48.082;11.628;2023-07-29T00:37:04;95088.44;;;16.43;100.00
72409;BME280;60402;48.082;11.628;2023-07-29T00:39:51;95088.94;;;16.26;100.00
72409;BME280;60402;48.082;11.628;2023-07-29T00:42:37;95087.28;;;16.20;100.00
72409;BME280;60402;48.082;11.628;2023-07-29T00:45:23;95081.56;;;16.05;100.00
72409;BME280;60402;48.082;11.628;2023-07-29T00:48:10;95078.50;;;16.08;100.00
72409;BME280;60402;48.082;11.628;2023-07-29T00:50:56;95086.09;;;16.12;100.00
72409;BME280;60402;48.082;11.628;2023-07-29T00:53:42;95092.56;;;16.27;100.00
72409;BME280;60402;48.082;11.628;2023-07-29T00:56:28;95085.78;;;16.24;100.00
72409;BME280;60402;48.082;11.628;2023-07-29T00:59:13;95076.84;;;16.17;100.00
72409;BME280;60402;48.082;11.628;2023-07-29T01:01:59;95072.50;;;16.21;100.00
72409;BME280;60402;48.082;11.628;2023-07-29T01:04:45;95067.31;;;16.20;100.00
72409;BME280;60402;48.082;11.628;2023-07-29T01:07:38;95069.84;;;16.32;100.00
72409;BME280;60402;48.082;11.628;2023-07-29T01:10:51;95080.28;;;16.35;100.00
72409;BME280;60402;48.082;11.628;2023-07-29T01:13:53;95069.38;;;16.34;100.00
72409;BME280;60402;48.082;11.628;2023-07-29T01:16:42;95076.44;;;16.39;100.00
72409;BME280;60402;48.082;11.628;2023-07-29T01:22:41;95074.59;;;16.21;100.00
72409;BME280;60402;48.082;11.628;2023-07-29T01:25:27;95057.38;;;16.15;100.00
72409;BME280;60402;48.082;11.628;2023-07-29T01:28:12;95061.63;;;16.20;100.00
72409;BME280;60402;48.082;11.628;2023-07-29T01:31:05;95064.75;;;16.22;100.00
72409;BME280;60402;48.082;11.628;2023-07-29T01:33:59;95063.56;;;16.14;100.00
72409;BME280;60402;48.082;11.628;2023-07-29T01:36:50;95061.91;;;16.07;100.00
72409;BME280;60402;48.082;11.628;2023-07-29T01:39:37;95051.09;;;15.96;100.00
72409;BME280;60402;48.082;11.628;2023-07-29T01:42:23;95046.56;;;15.90;100.00
72409;BME280;60402;48.082;11.628;2023-07-29T01:45:10;95048.25;;;15.81;100.00
72409;BME280;60402;48.082;11.628;2023-07-29T01:47:55;95039.28;;;15.74;100.00
72409;BME280;60402;48.082;11.628;2023-07-29T01:50:41;95042.13;;;15.74;100.00
72409;BME280;60402;48.082;11.628;2023-07-29T01:53:26;95048.03;;;15.85;100.00
72409;BME280;60402;48.082;11.628;2023-07-29T01:56:12;95048.63;;;15.89;100.00
72409;BME280;60402;48.082;11.628;2023-07-29T01:58:58;95053.53;;;15.89;100.00
72409;BME280;60402;48.082;11.628;2023-07-29T02:01:43;95040.75;;;15.69;100.00
72409;BME280;60402;48.082;11.628;2023-07-29T02:04:29;95044.09;;;15.68;100.00
72409;BME280;60402;48.082;11.628;2023-07-29T02:07:15;95048.84;;;15.62;100.00
72409;BME280;60402;48.082;11.628;2023-07-29T02:10:00;95041.06;;;15.47;100.00
72409;BME280;60402;48.082;11.628;2023-07-29T02:12:46;95043.53;;;15.54;100.00
72409;BME280;60402;48.082;11.628;2023-07-29T02:15:32;95053.47;;;15.59;100.00
72409;BME280;60402;48.082;11.628;2023-07-29T02:18:17;95037.16;;;15.59;100.00
72409;BME280;60402;48.082;11.628;2023-07-29T02:21:03;95039.84;;;15.63;100.00
72409;BME280;60402;48.082;11.628;2023-07-29T02:23:48;95029.22;;;15.49;100.00
72409;BME280;60402;48.082;11.628;2023-07-29T02:26:34;95031.56;;;15.50;100.00
72409;BME280;60402;48.082;11.628;2023-07-29T02:29:20;95033.13;;;15.51;100.00
72409;BME280;60402;48.082;11.628;2023-07-29T02:32:06;95038.34;;;15.53;100.00
72409;BME280;60402;48.082;11.628;2023-07-29T02:34:52;95038.53;;;15.49;100.00
72409;BME280;60402;48.082;11.628;2023-07-29T02:37:38;95047.47;;;15.57;100.00
72409;BME280;60402;48.082;11.628;2023-07-29T02:40:23;95054.06;;;15.63;100.00
72409;BME280;60402;48.082;11.628;2023-07-29T02:43:12;95053.75;;;15.61;100.00
72409;BME280;60402;48.082;11.628;2023-07-29T02:45:57;95067.13;;;15.55;100.00
72409;BME280;60402;48.082;11.628;2023-07-29T02:48:44;95062.38;;;15.52;100.00
72409;BME280;60402;48.082;11.628;2023-07-29T02:51:30;95063.38;;;15.49;100.00
72409;BME280;60402;48.082;11.628;2023-07-29T02:54:16;95053.81;;;15.37;100.00
72409;BME280;60402;48.082;11.628;2023-07-29T02:57:01;95054.59;;;15.38;100.00
72409;BME280;60402;48.082;11.628;2023-07-29T02:59:47;95056.47;;;15.41;100.00
72409;BME280;60402;48.082;11.628;2023-07-29T03:02:33;95054.13;;;15.39;100.00
72409;BME280;60402;48.082;11.628;2023-07-29T03:05:18;95053.19;;;15.33;100.00
72409;BME280;60402;48.082;11.628;2023-07-29T03:08:04;95056.31;;;15.20;100.00
72409;BME280;60402;48.082;11.628;2023-07-29T03:10:50;95046.69;;;15.18;100.00
72409;BME280;60402;48.082;11.628;2023-07-29T03:13:36;95041.31;;;15.20;100.00
72409;BME280;60402;48.082;11.628;2023-07-29T03:16:22;95046.75;;;15.08;100.00
72409;BME280;60402;48.082;11.628;2023-07-29T03:19:08;95028.94;;;14.99;100.00
72409;BME280;60402;48.082;11.628;2023-07-29T03:21:53;95046.41;;;15.16;100.00
72409;BME280;60402;48.082;11.628;2023-07-29T03:24:39;95056.63;;;15.22;100.00
72409;BME280;60402;48.082;11.628;2023-07-29T03:27:25;95051.81;;;15.28;100.00
72409;BME280;60402;48.082;11.628;2023-07-29T03:30:11;95044.94;;;15.20;100.00
72409;BME280;60402;48.082;11.628;2023-07-29T03:32:56;95040.81;;;15.21;100.00
72409;BME280;60402;48.082;11.628;2023-07-29T03:35:42;95040.22;;;15.17;100.00
72409;BME280;60402;48.082;11.628;2023-07-29T03:38:30;95040.44;;;15.04;100.00
72409;BME280;60402;48.082;11.628;2023-07-29T03:41:15;95044.00;;;15.14;100.00
72409;BME280;60402;48.082;11.628;2023-07-29T03:44:01;95029.69;;;15.08;100.00
72409;BME280;60402;48.082;11.628;2023-07-29T03:46:46;95037.31;;;15.02;100.00
72409;BME280;60402;48.082;11.628;2023-07-29T03:49:32;95040.09;;;15.12;100.00
72409;BME280;60402;48.082;11.628;2023-07-29T03:52:18;95027.16;;;15.11;100.00
72409;BME280;60402;48.082;11.628;2023-07-29T03:55:04;95034.34;;;15.21;100.00
72409;BME280;60402;48.082;11.628;2023-07-29T03:57:49;95045.34;;;15.28;100.00
72409;BME280;60402;48.082;11.628;2023-07-29T04:00:35;95050.56;;;15.29;100.00
72409;BME280;60402;48.082;11.628;2023-07-29T04:03:21;95042.13;;;15.35;100.00
72409;BME280;60402;48.082;11.628;2023-07-29T04:06:06;95058.44;;;15.34;100.00
72409;BME280;60402;48.082;11.628;2023-07-29T04:08:52;95049.28;;;15.30;100.00
72409;BME280;60402;48.082;11.628;2023-07-29T04:11:38;95031.97;;;15.19;100.00
72409;BME280;60402;48.082;11.628;2023-07-29T04:14:24;95030.94;;;15.31;100.00
72409;BME280;60402;48.082;11.628;2023-07-29T04:17:09;95033.28;;;15.33;100.00
72409;BME280;60402;48.082;11.628;2023-07-29T04:19:55;95021.88;;;15.33;100.00
72409;BME280;60402;48.082;11.628;2023-07-29T04:22:41;95013.66;;;15.35;100.00
72409;BME280;60402;48.082;11.628;2023-07-29T04:25:27;95007.41;;;15.46;100.00
72409;BME280;60402;48.082;11.628;2023-07-29T04:28:13;95005.94;;;15.50;100.00
72409;BME280;60402;48.082;11.628;2023-07-29T04:30:58;94999.13;;;15.48;100.00
72409;BME280;60402;48.082;11.628;2023-07-29T04:33:45;94992.97;;;15.49;100.00
72409;BME280;60402;48.082;11.628;2023-07-29T04:36:30;94993.00;;;15.64;100.00
72409;BME280;60402;48.082;11.628;2023-07-29T04:39:16;95001.25;;;15.62;100.00
72409;BME280;60402;48.082;11.628;2023-07-29T04:42:02;94998.03;;;15.69;100.00
72409;BME280;60402;48.082;11.628;2023-07-29T04:44:47;95000.09;;;15.69;100.00
72409;BME280;60402;48.082;11.628;2023-07-29T04:47:33;94992.22;;;15.64;100.00
72409;BME280;60402;48.082;11.628;2023-07-29T04:50:19;95004.69;;;15.66;100.00
72409;BME280;60402;48.082;11.628;2023-07-29T04:53:04;95009.81;;;15.77;100.00
72409;BME280;60402;48.082;11.628;2023-07-29T04:55:50;95003.63;;;15.78;100.00
72409;BME280;60402;48.082;11.628;2023-07-29T04:58:36;95015.63;;;15.82;100.00
72409;BME280;60402;48.082;11.628;2023-07-29T05:01:21;95011.19;;;15.96;100.00
72409;BME280;60402;48.082;11.628;2023-07-29T05:04:07;94998.81;;;15.99;100.00
72409;BME280;60402;48.082;11.628;2023-07-29T05:06:52;95000.56;;;16.12;100.00
72409;BME280;60402;48.082;11.628;2023-07-29T05:09:38;95002.53;;;16.20;100.00
72409;BME280;60402;48.082;11.628;2023-07-29T05:12:24;94997.78;;;16.47;100.00
72409;BME280;60402;48.082;11.628;2023-07-29T05:15:10;94983.88;;;16.54;100.00
72409;BME280;60402;48.082;11.628;2023-07-29T05:17:56;94983.25;;;16.80;100.00
72409;BME280;60402;48.082;11.628;2023-07-29T05:20:41;94989.47;;;16.99;100.00
72409;BME280;60402;48.082;11.628;2023-07-29T05:23:27;94982.03;;;17.07;100.00
72409;BME280;60402;48.082;11.628;2023-07-29T05:26:13;94979.59;;;17.20;100.00
72409;BME280;60402;48.082;11.628;2023-07-29T05:28:58;94972.44;;;17.30;100.00
72409;BME280;60402;48.082;11.628;2023-07-29T05:31:44;94967.31;;;17.34;100.00
72409;BME280;60402;48.082;11.628;2023-07-29T05:34:30;94974.88;;;17.63;100.00
72409;BME280;60402;48.082;11.628;2023-07-29T05:37:15;94966.16;;;17.73;100.00
72409;BME280;60402;48.082;11.628;2023-07-29T05:40:01;94971.94;;;17.78;100.00
72409;BME280;60402;48.082;11.628;2023-07-29T05:42:47;94983.38;;;18.04;100.00
72409;BME280;60402;48.082;11.628;2023-07-29T05:45:33;94995.59;;;18.05;100.00
72409;BME280;60402;48.082;11.628;2023-07-29T05:48:19;94990.44;;;18.09;100.00
72409;BME280;60402;48.082;11.628;2023-07-29T05:51:05;94992.09;;;18.21;100.00
72409;BME280;60402;48.082;11.628;2023-07-29T05:53:51;94991.28;;;18.21;100.00
72409;BME280;60402;48.082;11.628;2023-07-29T05:56:36;94999.16;;;18.26;100.00
72409;BME280;60402;48.082;11.628;2023-07-29T05:59:22;95005.22;;;18.39;100.00
72409;BME280;60402;48.082;11.628;2023-07-29T06:02:07;94997.34;;;18.28;100.00
72409;BME280;60402;48.082;11.628;2023-07-29T06:04:53;95016.75;;;18.45;100.00
72409;BME280;60402;48.082;11.628;2023-07-29T06:07:39;95039.63;;;18.45;100.00
72409;BME280;60402;48.082;11.628;2023-07-29T06:10:29;95075.03;;;18.21;100.00
72409;BME280;60402;48.082;11.628;2023-07-29T06:13:14;95054.44;;;17.91;100.00
72409;BME280;60402;48.082;11.628;2023-07-29T06:16:00;95039.31;;;17.85;100.00
72409;BME280;60402;48.082;11.628;2023-07-29T06:18:46;95018.53;;;17.64;100.00
72409;BME280;60402;48.082;11.628;2023-07-29T06:21:31;94995.56;;;17.53;100.00
72409;BME280;60402;48.082;11.628;2023-07-29T06:24:17;95004.03;;;17.68;100.00
72409;BME280;60402;48.082;11.628;2023-07-29T06:27:03;95005.22;;;17.55;100.00
72409;BME280;60402;48.082;11.628;2023-07-29T06:29:48;94999.84;;;17.43;100.00
72409;BME280;60402;48.082;11.628;2023-07-29T06:32:34;95013.09;;;17.66;100.00
72409;BME280;60402;48.082;11.628;2023-07-29T06:35:20;95009.16;;;17.63;100.00
72409;BME280;60402;48.082;11.628;2023-07-29T06:38:05;95011.63;;;17.50;100.00
72409;BME280;60402;48.082;11.628;2023-07-29T06:40:51;95028.09;;;17.81;100.00
72409;BME280;60402;48.082;11.628;2023-07-29T06:43:37;95035.47;;;17.88;100.00
72409;BME280;60402;48.082;11.628;2023-07-29T06:46:23;95033.53;;;17.79;100.00
72409;BME280;60402;48.082;11.628;2023-07-29T06:49:09;95058.38;;;17.94;100.00
72409;BME280;60402;48.082;11.628;2023-07-29T06:51:54;95063.97;;;17.82;100.00
72409;BME280;60402;48.082;11.628;2023-07-29T06:54:40;95082.47;;;17.87;100.00
72409;BME280;60402;48.082;11.628;2023-07-29T06:57:26;95066.50;;;17.75;100.00
72409;BME280;60402;48.082;11.628;2023-07-29T07:00:11;95070.91;;;17.76;100.00
72409;BME280;60402;48.082;11.628;2023-07-29T07:02:57;95091.09;;;17.72;100.00
72409;BME280;60402;48.082;11.628;2023-07-29T07:05:43;95091.19;;;17.78;100.00
72409;BME280;60402;48.082;11.628;2023-07-29T07:08:28;95097.91;;;17.75;100.00
72409;BME280;60402;48.082;11.628;2023-07-29T07:11:16;95084.88;;;17.53;100.00
72409;BME280;60402;48.082;11.628;2023-07-29T07:14:01;95086.38;;;17.49;100.00
72409;BME280;60402;48.082;11.628;2023-07-29T07:16:47;95085.25;;;17.61;100.00
72409;BME280;60402;48.082;11.628;2023-07-29T07:19:33;95091.44;;;17.59;100.00
72409;BME280;60402;48.082;11.628;2023-07-29T07:22:18;95093.25;;;17.57;100.00
72409;BME280;60402;48.082;11.628;2023-07-29T07:25:04;95073.63;;;17.65;100.00
72409;BME280;60402;48.082;11.628;2023-07-29T07:27:50;95083.38;;;17.58;100.00
72409;BME280;60402;48.082;11.628;2023-07-29T07:30:39;95082.59;;;17.57;100.00
72409;BME280;60402;48.082;11.628;2023-07-29T07:33:26;95076.53;;;17.70;100.00
72409;BME280;60402;48.082;11.628;2023-07-29T07:36:12;95073.03;;;17.81;100.00
72409;BME280;60402;48.082;11.628;2023-07-29T07:38:57;95062.53;;;17.72;100.00
72409;BME280;60402;48.082;11.628;2023-07-29T07:41:44;95056.22;;;17.68;100.00
72409;BME280;60402;48.082;11.628;2023-07-29T07:44:29;95046.66;;;17.71;100.00
72409;BME280;60402;48.082;11.628;2023-07-29T07:47:15;95039.22;;;17.74;100.00
72409;BME280;60402;48.082;11.628;2023-07-29T07:50:01;95025.81;;;17.85;100.00
72409;BME280;60402;48.082;11.628;2023-07-29T07:52:46;95018.34;;;17.94;100.00
72409;BME280;60402;48.082;11.628;2023-07-29T07:55:32;95014.22;;;17.95;100.00
72409;BME280;60402;48.082;11.628;2023-07-29T07:58:18;95009.16;;;17.84;100.00
72409;BME280;60402;48.082;11.628;2023-07-29T08:01:04;95018.84;;;17.92;100.00
72409;BME280;60402;48.082;11.628;2023-07-29T08:03:50;95019.88;;;17.89;100.00
72409;BME280;60402;48.082;11.628;2023-07-29T08:06:36;95018.56;;;17.90;100.00
72409;BME280;60402;48.082;11.628;2023-07-29T08:09:22;95021.44;;;18.16;100.00
72409;BME280;60402;48.082;11.628;2023-07-29T08:12:07;95023.38;;;18.30;100.00
72409;BME280;60402;48.082;11.628;2023-07-29T08:14:53;95024.34;;;18.22;100.00
72409;BME280;60402;48.082;11.628;2023-07-29T08:17:39;95021.16;;;18.46;100.00
72409;BME280;60402;48.082;11.628;2023-07-29T08:20:24;95029.13;;;18.68;100.00
72409;BME280;60402;48.082;11.628;2023-07-29T08:23:10;95031.38;;;18.89;100.00
72409;BME280;60402;48.082;11.628;2023-07-29T08:26:01;95020.09;;;19.18;100.00
72409;BME280;60402;48.082;11.628;2023-07-29T08:28:48;95017.88;;;19.44;100.00
72409;BME280;60402;48.082;11.628;2023-07-29T08:31:33;95019.22;;;19.49;100.00
72409;BME280;60402;48.082;11.628;2023-07-29T08:34:19;95021.22;;;19.37;100.00
72409;BME280;60402;48.082;11.628;2023-07-29T08:37:05;95023.31;;;19.36;100.00
72409;BME280;60402;48.082;11.628;2023-07-29T08:39:51;95016.06;;;19.52;100.00
72409;BME280;60402;48.082;11.628;2023-07-29T08:42:40;95030.81;;;19.77;100.00
72409;BME280;60402;48.082;11.628;2023-07-29T08:45:27;95019.56;;;19.73;100.00
72409;BME280;60402;48.082;11.628;2023-07-29T08:48:19;95027.19;;;19.99;100.00
72409;BME280;60402;48.082;11.628;2023-07-29T08:51:10;95027.47;;;20.01;100.00
72409;BME280;60402;48.082;11.628;2023-07-29T08:53:56;95024.31;;;19.99;100.00
72409;BME280;60402;48.082;11.628;2023-07-29T08:56:42;95025.06;;;19.82;100.00
72409;BME280;60402;48.082;11.628;2023-07-29T08:59:28;95017.56;;;19.96;100.00
72409;BME280;60402;48.082;11.628;2023-07-29T09:02:14;95025.63;;;20.03;100.00
72409;BME280;60402;48.082;11.628;2023-07-29T09:05:01;95019.41;;;20.27;100.00
72409;BME280;60402;48.082;11.628;2023-07-29T09:07:47;95016.28;;;20.31;100.00
72409;BME280;60402;48.082;11.628;2023-07-29T09:10:36;95016.06;;;20.74;100.00
72409;BME280;60402;48.082;11.628;2023-07-29T09:13:22;95026.47;;;20.88;100.00
72409;BME280;60402;48.082;11.628;2023-07-29T09:16:08;95023.56;;;21.10;100.00
72409;BME280;60402;48.082;11.628;2023-07-29T09:18:54;95022.63;;;21.66;100.00
72409;BME280;60402;48.082;11.628;2023-07-29T09:21:41;95034.97;;;22.13;96.95
72409;BME280;60402;48.082;11.628;2023-07-29T09:24:27;95031.31;;;22.49;94.68
72409;BME280;60402;48.082;11.628;2023-07-29T09:27:28;95030.34;;;23.06;91.57
72409;BME280;60402;48.082;11.628;2023-07-29T09:30:17;95025.47;;;23.69;88.46
72409;BME280;60402;48.082;11.628;2023-07-29T09:33:03;95025.38;;;24.37;86.17
72409;BME280;60402;48.082;11.628;2023-07-29T09:35:48;95023.53;;;24.71;82.68
72409;BME280;60402;48.082;11.628;2023-07-29T09:38:34;95029.47;;;24.92;80.56
72409;BME280;60402;48.082;11.628;2023-07-29T09:41:26;95027.91;;;24.91;80.16
72409;BME280;60402;48.082;11.628;2023-07-29T09:44:12;95039.94;;;24.95;78.78
72409;BME280;60402;48.082;11.628;2023-07-29T09:46:58;95021.72;;;25.01;77.30
72409;BME280;60402;48.082;11.628;2023-07-29T09:49:43;95028.59;;;24.97;77.32
72409;BME280;60402;48.082;11.628;2023-07-29T09:52:29;95017.91;;;25.24;76.37
72409;BME280;60402;48.082;11.628;2023-07-29T09:55:18;95021.81;;;25.40;76.39
72409;BME280;60402;48.082;11.628;2023-07-29T09:58:04;95006.75;;;25.15;75.68
72409;BME280;60402;48.082;11.628;2023-07-29T10:00:53;95015.53;;;25.10;75.30
72409;BME280;60402;48.082;11.628;2023-07-29T10:03:39;95016.91;;;25.22;75.85
72409;BME280;60402;48.082;11.628;2023-07-29T10:06:26;95017.13;;;24.60;78.23
72409;BME280;60402;48.082;11.628;2023-07-29T10:09:12;94990.38;;;24.59;79.40
72409;BME280;60402;48.082;11.628;2023-07-29T10:11:58;95006.34;;;24.60;79.29
72409;BME280;60402;48.082;11.628;2023-07-29T10:14:45;95008.81;;;25.02;78.38
72409;BME280;60402;48.082;11.628;2023-07-29T10:17:34;95004.13;;;25.17;75.77
72409;BME280;60402;48.082;11.628;2023-07-29T10:20:21;94997.09;;;25.39;77.42
72409;BME280;60402;48.082;11.628;2023-07-29T10:23:07;95007.78;;;25.44;75.80
72409;BME280;60402;48.082;11.628;2023-07-29T10:26:02;94993.31;;;25.31;76.15
72409;BME280;60402;48.082;11.628;2023-07-29T10:28:51;94991.22;;;25.45;76.39
72409;BME280;60402;48.082;11.628;2023-07-29T10:31:39;94992.31;;;25.68;76.08
72409;BME280;60402;48.082;11.628;2023-07-29T10:34:26;94991.97;;;25.72;75.95
72409;BME280;60402;48.082;11.628;2023-07-29T10:37:12;94987.31;;;25.95;72.22
72409;BME280;60402;48.082;11.628;2023-07-29T10:39:58;94979.22;;;25.81;70.50
72409;BME280;60402;48.082;11.628;2023-07-29T10:43:03;94971.88;;;25.80;73.34
72409;BME280;60402;48.082;11.628;2023-07-29T10:45:52;94964.69;;;26.07;70.89
72409;BME280;60402;48.082;11.628;2023-07-29T10:48:42;94979.66;;;25.85;70.33
72409;BME280;60402;48.082;11.628;2023-07-29T10:51:29;94979.31;;;25.88;68.50
72409;BME280;60402;48.082;11.628;2023-07-29T10:54:15;94972.25;;;25.97;69.25
72409;BME280;60402;48.082;11.628;2023-07-29T10:57:02;94959.44;;;26.06;68.59
72409;BME280;60402;48.082;11.628;2023-07-29T10:59:55;94969.31;;;26.23;68.56
72409;BME280;60402;48.082;11.628;2023-07-29T11:02:41;94959.16;;;26.30;66.51
72409;BME280;60402;48.082;11.628;2023-07-29T11:05:41;94972.16;;;26.37;67.89
72409;BME280;60402;48.082;11.628;2023-07-29T11:08:29;94964.13;;;26.43;67.24
72409;BME280;60402;48.082;11.628;2023-07-29T11:11:14;94961.97;;;26.57;66.84
72409;BME280;60402;48.082;11.628;2023-07-29T11:14:01;94955.19;;;26.54;65.12
72409;BME280;60402;48.082;11.628;2023-07-29T11:16:47;94964.59;;;26.68;64.63
72409;BME280;60402;48.082;11.628;2023-07-29T11:19:34;94956.69;;;26.68;65.11
72409;BME280;60402;48.082;11.628;2023-07-29T11:22:20;94963.44;;;26.71;63.94
72409;BME280;60402;48.082;11.628;2023-07-29T11:25:11;94957.59;;;26.84;64.57
72409;BME280;60402;48.082;11.628;2023-07-29T11:27:59;94956.78;;;26.63;64.81
72409;BME280;60402;48.082;11.628;2023-07-29T11:30:45;94943.50;;;26.46;64.28
72409;BME280;60402;48.082;11.628;2023-07-29T11:33:30;94954.81;;;26.58;62.83
72409;BME280;60402;48.082;11.628;2023-07-29T11:36:19;94964.78;;;26.02;65.05
72409;BME280;60402;48.082;11.628;2023-07-29T11:39:11;94985.53;;;25.66;63.43
72409;BME280;60402;48.082;11.628;2023-07-29T11:41:57;94967.28;;;25.44;63.61
72409;BME280;60402;48.082;11.628;2023-07-29T11:44:42;94976.66;;;25.37;64.42
72409;BME280;60402;48.082;11.628;2023-07-29T11:47:28;94975.97;;;25.58;65.25
72409;BME280;60402;48.082;11.628;2023-07-29T11:50:14;94969.09;;;25.47;64.03
72409;BME280;60402;48.082;11.628;2023-07-29T11:53:00;94973.84;;;25.45;65.20
72409;BME280;60402;48.082;11.628;2023-07-29T11:55:51;94969.53;;;25.52;64.58
72409;BME280;60402;48.082;11.628;2023-07-29T11:58:37;94957.31;;;25.32;65.69
72409;BME280;60402;48.082;11.628;2023-07-29T12:01:23;94958.84;;;25.46;66.61
72409;BME280;60402;48.082;11.628;2023-07-29T12:04:09;94971.84;;;25.40;64.89
72409;BME280;60402;48.082;11.628;2023-07-29T12:06:55;94961.88;;;25.41;65.26
72409;BME280;60402;48.082;11.628;2023-07-29T12:09:42;94954.28;;;25.51;64.49
72409;BME280;60402;48.082;11.628;2023-07-29T12:12:28;94955.59;;;25.63;64.32
72409;BME280;60402;48.082;11.628;2023-07-29T12:15:13;94948.38;;;25.43;63.09
72409;BME280;60402;48.082;11.628;2023-07-29T12:17:59;94944.06;;;25.23;64.09
72409;BME280;60402;48.082;11.628;2023-07-29T12:20:45;94940.16;;;25.61;65.63
72409;BME280;60402;48.082;11.628;2023-07-29T12:23:30;94931.03;;;25.43;64.26
72409;BME280;60402;48.082;11.628;2023-07-29T12:26:16;94924.47;;;25.43;65.05
72409;BME280;60402;48.082;11.628;2023-07-29T12:29:16;94921.25;;;25.46;65.91
72409;BME280;60402;48.082;11.628;2023-07-29T12:32:03;94937.47;;;25.63;65.70
72409;BME280;60402;48.082;11.628;2023-07-29T12:34:49;94943.03;;;25.74;64.20
72409;BME280;60402;48.082;11.628;2023-07-29T12:37:35;94930.66;;;25.87;63.93
72409;BME280;60402;48.082;11.628;2023-07-29T12:40:22;94927.06;;;26.07;64.94
72409;BME280;60402;48.082;11.628;2023-07-29T12:43:08;94908.94;;;25.93;65.22
72409;BME280;60402;48.082;11.628;2023-07-29T12:45:54;94899.41;;;26.06;63.19
72409;BME280;60402;48.082;11.628;2023-07-29T12:48:40;94917.22;;;26.10;60.74
72409;BME280;60402;48.082;11.628;2023-07-29T12:51:25;94895.22;;;26.28;62.24
72409;BME280;60402;48.082;11.628;2023-07-29T12:54:11;94915.72;;;26.72;60.95
72409;BME280;60402;48.082;11.628;2023-07-29T12:56:57;94910.59;;;26.78;62.34
72409;BME280;60402;48.082;11.628;2023-07-29T12:59:42;94920.41;;;26.20;61.33
72409;BME280;60402;48.082;11.628;2023-07-29T13:02:28;94930.75;;;26.29;63.00
72409;BME280;60402;48.082;11.628;2023-07-29T13:05:14;94907.41;;;25.66;64.17
72409;BME280;60402;48.082;11.628;2023-07-29T13:07:59;94932.13;;;25.01;70.36
72409;BME280;60402;48.082;11.628;2023-07-29T13:10:45;94914.72;;;24.29;72.94
72409;BME280;60402;48.082;11.628;2023-07-29T13:13:31;94925.97;;;24.13;75.35
72409;BME280;60402;48.082;11.628;2023-07-29T13:16:17;94959.06;;;23.93;75.88
72409;BME280;60402;48.082;11.628;2023-07-29T13:19:03;94983.06;;;23.64;79.90
72409;BME280;60402;48.082;11.628;2023-07-29T13:21:48;95022.72;;;23.33;84.64
72409;BME280;60402;48.082;11.628;2023-07-29T13:24:34;94954.63;;;22.21;96.47
72409;BME280;60402;48.082;11.628;2023-07-29T13:27:19;94977.81;;;21.87;100.00
72409;BME280;60402;48.082;11.628;2023-07-29T13:30:06;94961.50;;;22.01;100.00
72409;BME280;60402;48.082;11.628;2023-07-29T13:32:51;94967.91;;;22.60;99.24
72409;BME280;60402;48.082;11.628;2023-07-29T13:35:37;94988.16;;;22.79;97.07
72409;BME280;60402;48.082;11.628;2023-07-29T13:38:23;94973.31;;;22.69;92.46
72409;BME280;60402;48.082;11.628;2023-07-29T13:41:09;94979.16;;;22.58;93.20
72409;BME280;60402;48.082;11.628;2023-07-29T13:43:54;94978.03;;;22.36;94.31
72409;BME280;60402;48.082;11.628;2023-07-29T13:46:40;94980.53;;;22.15;100.00
72409;BME280;60402;48.082;11.628;2023-07-29T13:49:25;94987.22;;;22.29;100.00
72409;BME280;60402;48.082;11.628;2023-07-29T13:52:12;94982.66;;;22.09;100.00
72409;BME280;60402;48.082;11.628;2023-07-29T13:54:57;94971.66;;;22.13;100.00
72409;BME280;60402;48.082;11.628;2023-07-29T13:57:43;94973.34;;;22.33;100.00
72409;BME280;60402;48.082;11.628;2023-07-29T14:00:29;94976.72;;;22.37;99.74
72409;BME280;60402;48.082;11.628;2023-07-29T14:03:14;94972.47;;;22.44;98.24
72409;BME280;60402;48.082;11.628;2023-07-29T14:06:00;94969.72;;;21.86;100.00
72409;BME280;60402;48.082;11.628;2023-07-29T14:08:47;94981.97;;;21.92;100.00
72409;BME280;60402;48.082;11.628;2023-07-29T14:11:33;94958.75;;;21.84;100.00
72409;BME280;60402;48.082;11.628;2023-07-29T14:14:18;94964.47;;;21.90;100.00
72409;BME280;60402;48.082;11.628;2023-07-29T14:17:04;94962.75;;;21.70;100.00
72409;BME280;60402;48.082;11.628;2023-07-29T14:19:50;94962.75;;;21.70;100.00
72409;BME280;60402;48.082;11.628;2023-07-29T14:22:36;94966.66;;;21.73;100.00
72409;BME280;60402;48.082;11.628;2023-07-29T14:25:21;94968.88;;;21.44;100.00